createdAt,value
2023-08-02T00:02:14.001Z,49.30
2023-08-02T00:04:40.859Z,49.50
2023-08-02T00:07:07.665Z,49.40
2023-08-02T00:09:34.939Z,49.30
2023-08-02T00:12:03.397Z,49.50
2023-08-02T00:14:30.367Z,49.10
2023-08-02T00:16:57.141Z,49.20
2023-08-02T00:19:24.091Z,49.40
2023-08-02T00:21:50.872Z,49.60
2023-08-02T00:24:17.888Z,49.40
2023-08-02T00:26:46.460Z,49.40
2023-08-02T00:29:14.667Z,49.60
2023-08-02T00:31:41.500Z,49.90
2023-08-02T00:34:08.286Z,49.30
2023-08-02T00:36:35.138Z,49.60
2023-08-02T00:39:01.902Z,49.60
2023-08-02T00:41:28.638Z,49.50
2023-08-02T00:43:55.412Z,50.20
2023-08-02T00:46:23.865Z,49.50
2023-08-02T00:48:50.718Z,49.60
2023-08-02T00:51:19.642Z,49.40
2023-08-02T00:53:47.353Z,49.80
2023-08-02T00:56:16.024Z,49.60
2023-08-02T00:58:46.071Z,50.10
2023-08-02T01:01:13.073Z,49.10
2023-08-02T01:03:42.242Z,49.30
2023-08-02T01:06:16.451Z,49.80
2023-08-02T01:08:45.676Z,49.40
2023-08-02T01:11:18.769Z,49.10
2023-08-02T01:13:50.493Z,49.50
2023-08-02T01:16:17.760Z,50.00
2023-08-02T01:18:46.116Z,49.60
2023-08-02T01:21:14.202Z,50.00
2023-08-02T01:23:41.018Z,49.70
2023-08-02T01:26:07.860Z,49.70
2023-08-02T01:28:38.709Z,49.60
2023-08-02T01:31:06.649Z,49.60
2023-08-02T01:33:40.080Z,49.40
2023-08-02T01:36:07.207Z,49.70
2023-08-02T01:38:35.465Z,49.20
2023-08-02T01:41:02.245Z,49.60
2023-08-02T01:43:28.998Z,49.70
2023-08-02T01:45:55.783Z,49.80
2023-08-02T01:48:22.561Z,49.60
2023-08-02T01:50:49.417Z,49.20
2023-08-02T01:53:16.385Z,49.40
2023-08-02T01:55:44.604Z,49.60
2023-08-02T01:58:11.338Z,49.50
2023-08-02T02:00:38.135Z,49.50
2023-08-02T02:03:05.150Z,49.50
2023-08-02T02:05:32.033Z,49.60
2023-08-02T02:07:58.772Z,49.80
2023-08-02T02:10:25.498Z,49.90
2023-08-02T02:12:53.648Z,49.90
2023-08-02T02:15:20.489Z,50.10
2023-08-02T02:17:47.260Z,50.20
2023-08-02T02:20:14.094Z,49.90
2023-08-02T02:22:40.869Z,50.10
2023-08-02T02:25:08.337Z,50.40
2023-08-02T02:27:35.041Z,49.90
2023-08-02T02:30:03.452Z,50.50
2023-08-02T02:32:30.210Z,50.20
2023-08-02T02:34:56.980Z,50.30
2023-08-02T02:37:23.732Z,50.10
2023-08-02T02:39:50.492Z,50.00
2023-08-02T02:42:17.237Z,50.10
2023-08-02T02:44:44.612Z,50.10
2023-08-02T02:47:13.272Z,50.20
2023-08-02T02:49:40.202Z,50.20
2023-08-02T02:52:07.946Z,50.30
2023-08-02T02:54:34.678Z,50.40
2023-08-02T02:57:02.018Z,50.40
2023-08-02T02:59:28.879Z,50.40
2023-08-02T03:01:55.738Z,50.00
2023-08-02T03:04:23.856Z,50.40
2023-08-02T03:06:51.681Z,50.20
2023-08-02T03:09:18.674Z,50.40
2023-08-02T03:11:45.823Z,50.60
2023-08-02T03:14:13.038Z,50.40
2023-08-02T03:16:40.261Z,50.40
2023-08-02T03:19:07.233Z,50.10
2023-08-02T03:21:35.412Z,49.90
2023-08-02T03:24:02.287Z,50.10
2023-08-02T03:26:29.166Z,50.10
2023-08-02T03:28:56.091Z,50.20
2023-08-02T03:31:23.145Z,50.00
2023-08-02T03:33:49.958Z,50.30
2023-08-02T03:36:16.989Z,50.40
2023-08-02T03:38:45.100Z,50.40
2023-08-02T03:41:12.160Z,50.90
2023-08-02T03:43:38.971Z,50.30
2023-08-02T03:46:05.767Z,50.40
2023-08-02T03:48:32.516Z,51.00
2023-08-02T03:50:59.979Z,50.90
2023-08-02T03:53:27.203Z,50.90
2023-08-02T03:55:55.260Z,50.10
2023-08-02T03:58:22.173Z,50.40
2023-08-02T04:00:49.058Z,50.40
2023-08-02T04:03:15.765Z,50.60
2023-08-02T04:05:42.651Z,50.20
2023-08-02T04:08:09.448Z,50.40
2023-08-02T04:10:36.874Z,50.10
2023-08-02T04:13:05.069Z,50.40
2023-08-02T04:15:32.011Z,50.20
2023-08-02T04:17:58.887Z,50.40
2023-08-02T04:20:26.085Z,50.60
2023-08-02T04:22:53.002Z,51.00
2023-08-02T04:25:19.782Z,50.70
2023-08-02T04:27:46.499Z,50.80
2023-08-02T04:30:14.737Z,50.50
2023-08-02T04:32:41.629Z,50.40
2023-08-02T04:35:08.757Z,50.40
2023-08-02T04:37:35.558Z,50.60
2023-08-02T04:40:02.315Z,50.80
2023-08-02T04:42:29.161Z,50.40
2023-08-02T04:44:56.120Z,50.30
2023-08-02T04:47:24.291Z,50.40
2023-08-02T04:49:51.048Z,50.30
2023-08-02T04:52:17.817Z,50.20
2023-08-02T04:54:44.555Z,50.60
2023-08-02T04:57:11.324Z,50.40
2023-08-02T04:59:38.102Z,50.20
2023-08-02T05:02:05.182Z,50.10
2023-08-02T05:04:33.509Z,50.30
2023-08-02T05:07:00.396Z,50.40
2023-08-02T05:09:27.157Z,50.60
2023-08-02T05:11:53.968Z,50.40
2023-08-02T05:14:20.780Z,50.80
2023-08-02T05:16:47.540Z,50.80
2023-08-02T05:19:14.297Z,50.80
2023-08-02T05:21:42.524Z,50.60
2023-08-02T05:24:09.523Z,51.10
2023-08-02T05:26:36.313Z,50.90
2023-08-02T05:29:03.100Z,50.90
2023-08-02T05:31:29.935Z,50.80
2023-08-02T05:33:56.742Z,51.00
2023-08-02T05:36:23.511Z,50.90
2023-08-02T05:38:51.611Z,51.00
2023-08-02T05:41:18.346Z,50.40
2023-08-02T05:43:45.283Z,50.30
2023-08-02T05:46:12.343Z,50.20
2023-08-02T05:48:39.135Z,50.70
2023-08-02T05:51:05.915Z,50.70
2023-08-02T05:53:32.662Z,50.80
2023-08-02T05:56:00.851Z,50.60
2023-08-02T05:58:27.657Z,50.80
2023-08-02T06:00:54.421Z,50.90
2023-08-02T06:03:21.200Z,50.70
2023-08-02T06:05:48.008Z,50.80
2023-08-02T06:08:14.823Z,50.60
2023-08-02T06:10:41.776Z,50.50
2023-08-02T06:13:09.869Z,50.30
2023-08-02T06:15:36.666Z,50.20
2023-08-02T06:18:03.664Z,50.10
2023-08-02T06:20:30.495Z,50.10
2023-08-02T06:22:57.218Z,50.00
2023-08-02T06:25:24.076Z,50.10
2023-08-02T06:27:50.831Z,50.00
2023-08-02T06:30:18.954Z,50.10
2023-08-02T06:32:45.916Z,50.00
2023-08-02T06:35:13.117Z,49.80
2023-08-02T06:37:39.950Z,49.50
2023-08-02T06:40:08.131Z,49.30
2023-08-02T06:42:34.915Z,49.20
2023-08-02T06:45:01.633Z,49.10
2023-08-02T06:47:29.799Z,48.60
2023-08-02T06:49:56.601Z,48.70
2023-08-02T06:52:23.306Z,48.50
2023-08-02T06:54:52.782Z,48.40
2023-08-02T06:57:19.553Z,48.30
2023-08-02T06:59:46.313Z,47.90
2023-08-02T07:02:13.129Z,47.90
2023-08-02T07:04:41.377Z,47.70
2023-08-02T07:07:08.415Z,48.00
2023-08-02T07:09:35.163Z,47.50
2023-08-02T07:12:01.935Z,47.20
2023-08-02T07:14:28.683Z,46.90
2023-08-02T07:16:55.472Z,46.20
2023-08-02T07:19:22.212Z,46.20
2023-08-02T07:21:50.293Z,45.90
2023-08-02T07:24:17.173Z,45.80
2023-08-02T07:26:43.925Z,45.40
2023-08-02T07:29:10.701Z,45.60
2023-08-02T07:31:37.430Z,45.20
2023-08-02T07:34:04.213Z,44.90
2023-08-02T07:36:31.118Z,45.00
2023-08-02T07:38:59.276Z,44.70
2023-08-02T07:41:26.234Z,44.70
2023-08-02T07:43:53.076Z,44.60
2023-08-02T07:46:20.830Z,44.60
2023-08-02T07:48:47.954Z,44.60
2023-08-02T07:51:14.736Z,44.50
2023-08-02T07:53:41.470Z,44.30
2023-08-02T07:56:09.581Z,44.10
2023-08-02T07:58:36.388Z,43.90
2023-08-02T08:01:06.954Z,44.40
2023-08-02T08:03:33.784Z,43.70
2023-08-02T08:06:00.639Z,43.80
2023-08-02T08:08:27.467Z,43.50
2023-08-02T08:10:54.571Z,43.20
2023-08-02T08:13:22.653Z,43.00
2023-08-02T08:15:49.569Z,42.80
2023-08-02T08:18:16.397Z,42.90
2023-08-02T08:20:43.327Z,42.30
2023-08-02T08:23:10.226Z,42.70
2023-08-02T08:25:37.016Z,42.60
2023-08-02T08:28:04.163Z,42.30
2023-08-02T08:30:32.401Z,42.40
2023-08-02T08:32:59.299Z,42.20
2023-08-02T08:35:26.137Z,42.10
2023-08-02T08:37:53.123Z,42.50
2023-08-02T08:40:20.571Z,41.80
2023-08-02T08:42:51.719Z,41.60
2023-08-02T08:45:20.307Z,41.70
2023-08-02T08:47:49.543Z,42.00
2023-08-02T08:50:19.254Z,42.30
2023-08-02T08:52:47.699Z,41.90
2023-08-02T08:55:15.765Z,41.90
2023-08-02T08:57:43.673Z,42.40
2023-08-02T09:00:12.133Z,41.90
2023-08-02T09:02:39.850Z,42.30
2023-08-02T09:05:09.351Z,42.50
2023-08-02T09:07:36.151Z,42.30
2023-08-02T09:10:03.529Z,42.70
2023-08-02T09:12:42.542Z,42.20
2023-08-02T09:15:09.541Z,42.50
2023-08-02T09:17:47.858Z,42.10
2023-08-02T09:20:17.365Z,41.90
2023-08-02T09:22:44.332Z,42.00
2023-08-02T09:25:21.647Z,41.90
2023-08-02T09:27:48.893Z,41.60
2023-08-02T09:30:24.384Z,41.60
2023-08-02T09:32:59.809Z,41.10
2023-08-02T09:35:28.555Z,40.80
2023-08-02T09:37:55.323Z,40.60
2023-08-02T09:40:34.414Z,41.00
2023-08-02T09:43:02.138Z,40.60
2023-08-02T09:45:32.564Z,41.70
2023-08-02T09:47:59.611Z,40.80
2023-08-02T09:50:27.927Z,41.00
2023-08-02T09:52:55.552Z,39.80
2023-08-02T09:55:22.415Z,40.00
2023-08-02T09:57:49.921Z,40.00
2023-08-02T10:00:18.147Z,39.60
2023-08-02T10:02:46.759Z,40.10
2023-08-02T10:05:14.558Z,39.90
2023-08-02T10:07:46.563Z,39.80
2023-08-02T10:10:16.567Z,39.70
2023-08-02T10:12:44.517Z,39.60
2023-08-02T10:15:11.587Z,39.90
2023-08-02T10:17:39.144Z,39.90
2023-08-02T10:20:07.844Z,39.70
2023-08-02T10:22:35.531Z,40.10
2023-08-02T10:25:04.036Z,40.50
2023-08-02T10:27:31.911Z,40.30
2023-08-02T10:29:58.879Z,40.40
2023-08-02T10:32:26.253Z,40.70
2023-08-02T10:34:53.484Z,41.30
2023-08-02T10:37:21.659Z,41.80
2023-08-02T10:39:52.917Z,41.80
2023-08-02T10:42:22.388Z,42.40
2023-08-02T10:45:14.354Z,42.50
2023-08-02T10:47:41.347Z,42.50
2023-08-02T10:50:08.191Z,42.80
2023-08-02T10:52:36.258Z,43.10
2023-08-02T10:55:14.202Z,43.20
2023-08-02T10:57:57.941Z,43.30
2023-08-02T11:00:26.690Z,43.20
2023-08-02T11:02:54.412Z,44.00
2023-08-02T11:05:40.194Z,44.30
2023-08-02T11:08:07.626Z,44.00
2023-08-02T11:10:34.782Z,43.80
2023-08-02T11:13:02.912Z,44.00
2023-08-02T11:15:29.705Z,43.90
2023-08-02T11:17:57.057Z,44.30
2023-08-02T11:20:25.754Z,44.50
2023-08-02T11:22:52.643Z,44.60
2023-08-02T11:25:40.766Z,44.50
2023-08-02T11:28:07.929Z,44.70
2023-08-02T11:30:34.814Z,44.90
2023-08-02T11:33:01.739Z,45.10
2023-08-02T11:35:28.737Z,45.00
2023-08-02T11:37:55.773Z,45.00
2023-08-02T11:40:26.924Z,45.30
2023-08-02T11:42:54.340Z,45.10
2023-08-02T11:45:32.291Z,45.40
2023-08-02T11:48:10.021Z,45.70
2023-08-02T11:50:39.414Z,45.70
2023-08-02T11:53:08.347Z,45.60
2023-08-02T11:55:36.325Z,45.00
2023-08-02T11:58:04.696Z,45.20
2023-08-02T12:00:34.230Z,44.70
2023-08-02T12:03:11.482Z,44.50
2023-08-02T12:05:38.403Z,44.50
2023-08-02T12:08:09.398Z,44.40
2023-08-02T12:10:36.267Z,44.90
2023-08-02T12:13:11.654Z,44.30
2023-08-02T12:15:40.044Z,44.30
2023-08-02T12:18:07.679Z,44.50
2023-08-02T12:20:35.426Z,44.30
2023-08-02T12:23:02.608Z,44.30
2023-08-02T12:25:46.209Z,44.30
2023-08-02T12:28:14.326Z,44.20
2023-08-02T12:30:57.451Z,44.60
2023-08-02T12:33:24.228Z,44.50
2023-08-02T12:35:51.014Z,44.50
2023-08-02T12:38:17.836Z,44.50
2023-08-02T12:40:44.746Z,44.80
2023-08-02T12:43:11.561Z,45.20
2023-08-02T12:45:38.465Z,45.40
2023-08-02T12:48:06.783Z,45.90
2023-08-02T12:50:33.701Z,45.70
2023-08-02T12:53:00.455Z,45.70
2023-08-02T12:55:27.192Z,45.60
2023-08-02T12:57:54.042Z,45.60
2023-08-02T13:00:20.917Z,45.90
2023-08-02T13:02:47.752Z,45.70
2023-08-02T13:05:15.871Z,45.50
2023-08-02T13:07:44.528Z,45.50
2023-08-02T13:10:12.336Z,45.60
2023-08-02T13:12:39.823Z,45.40
2023-08-02T13:15:07.635Z,45.40
2023-08-02T13:17:34.445Z,45.30
2023-08-02T13:20:01.374Z,45.30
2023-08-02T13:22:29.492Z,45.40
2023-08-02T13:24:56.391Z,45.60
2023-08-02T13:27:23.434Z,45.40
2023-08-02T13:29:50.205Z,45.60
2023-08-02T13:32:16.947Z,45.60
2023-08-02T13:34:43.663Z,46.00
2023-08-02T13:37:10.409Z,46.40
2023-08-02T13:39:38.657Z,46.50
2023-08-02T13:42:05.865Z,46.80
2023-08-02T13:44:32.726Z,46.40
2023-08-02T13:47:00.581Z,46.50
2023-08-02T13:49:27.749Z,46.70
2023-08-02T13:51:54.537Z,46.70
2023-08-02T13:54:21.436Z,46.90
2023-08-02T13:56:49.520Z,46.80
2023-08-02T13:59:16.550Z,46.60
2023-08-02T14:01:43.329Z,46.70
2023-08-02T14:04:10.166Z,46.90
2023-08-02T14:06:36.975Z,46.90
2023-08-02T14:09:04.035Z,46.80
2023-08-02T14:11:30.811Z,47.00
2023-08-02T14:13:58.915Z,47.00
2023-08-02T14:16:25.694Z,47.20
2023-08-02T14:18:52.449Z,47.20
2023-08-02T14:21:19.203Z,47.30
2023-08-02T14:23:46.128Z,47.40
2023-08-02T14:26:12.986Z,47.40
2023-08-02T14:28:39.737Z,47.40
2023-08-02T14:31:07.904Z,47.60
2023-08-02T14:33:34.735Z,47.80
2023-08-02T14:36:01.570Z,48.00
2023-08-02T14:38:28.300Z,47.80
2023-08-02T14:40:55.165Z,47.90
2023-08-02T14:43:21.984Z,48.00
2023-08-02T14:45:48.803Z,47.80
2023-08-02T14:48:16.955Z,48.00
2023-08-02T14:50:43.742Z,48.30
2023-08-02T14:53:10.552Z,48.30
2023-08-02T14:55:38.073Z,48.40
2023-08-02T14:58:04.957Z,48.10
2023-08-02T15:00:31.826Z,48.50
2023-08-02T15:02:58.580Z,48.40
2023-08-02T15:05:26.781Z,48.30
2023-08-02T15:07:53.556Z,48.70
2023-08-02T15:10:20.384Z,48.60
2023-08-02T15:12:47.149Z,48.60
2023-08-02T15:15:13.884Z,48.80
2023-08-02T15:17:40.736Z,48.70
2023-08-02T15:20:08.682Z,48.50
2023-08-02T15:22:36.787Z,48.60
2023-08-02T15:25:03.816Z,48.50
2023-08-02T15:27:30.634Z,48.50
2023-08-02T15:29:57.438Z,48.60
2023-08-02T15:32:24.375Z,48.30
2023-08-02T15:34:51.191Z,48.30
2023-08-02T15:37:18.309Z,48.40
2023-08-02T15:39:46.581Z,48.50
2023-08-02T15:42:13.357Z,48.30
2023-08-02T15:44:40.525Z,48.50
2023-08-02T15:47:07.307Z,48.50
2023-08-02T15:49:34.085Z,48.30
2023-08-02T15:52:00.961Z,48.40
2023-08-02T15:54:27.696Z,48.60
2023-08-02T15:56:55.783Z,48.50
2023-08-02T15:59:22.657Z,48.30
2023-08-02T16:01:49.667Z,48.30
2023-08-02T16:04:16.432Z,48.30
2023-08-02T16:06:43.298Z,48.40
2023-08-02T16:09:10.091Z,48.50
2023-08-02T16:11:36.806Z,48.70
2023-08-02T16:14:05.033Z,48.40
2023-08-02T16:16:31.796Z,48.50
2023-08-02T16:18:58.592Z,48.70
2023-08-02T16:21:25.340Z,48.60
2023-08-02T16:23:52.078Z,48.80
2023-08-02T16:26:19.078Z,48.60
2023-08-02T16:28:45.901Z,48.80
2023-08-02T16:31:14.231Z,48.80
2023-08-02T16:33:41.047Z,48.80
2023-08-02T16:36:07.886Z,48.70
2023-08-02T16:38:34.636Z,48.90
2023-08-02T16:41:02.502Z,48.40
2023-08-02T16:43:31.094Z,48.60
2023-08-02T16:45:57.931Z,48.90
2023-08-02T16:48:26.027Z,48.90
2023-08-02T16:50:52.821Z,49.20
2023-08-02T16:53:19.581Z,49.00
2023-08-02T16:55:46.414Z,49.00
2023-08-02T16:58:13.137Z,49.00
2023-08-02T17:00:40.088Z,49.20
2023-08-02T17:03:06.873Z,49.10
2023-08-02T17:05:35.060Z,49.40
2023-08-02T17:08:01.838Z,49.10
2023-08-02T17:10:28.574Z,49.00
2023-08-02T17:12:55.309Z,49.20
2023-08-02T17:15:22.119Z,48.70
2023-08-02T17:17:49.012Z,49.40
2023-08-02T17:20:16.049Z,49.50
2023-08-02T17:22:44.183Z,49.90
2023-08-02T17:25:10.962Z,49.80
2023-08-02T17:27:37.658Z,49.90
2023-08-02T17:30:05.110Z,49.90
2023-08-02T17:32:31.925Z,50.20
2023-08-02T17:34:58.751Z,50.30
2023-08-02T17:37:25.642Z,50.10
2023-08-02T17:39:53.900Z,50.50
2023-08-02T17:42:20.942Z,50.50
2023-08-02T17:44:47.853Z,50.10
2023-08-02T17:47:14.682Z,50.10
2023-08-02T17:49:41.427Z,50.00
2023-08-02T17:52:08.550Z,50.30
2023-08-02T17:54:35.374Z,50.30
2023-08-02T17:57:03.616Z,50.50
2023-08-02T17:59:30.460Z,50.50
2023-08-02T18:01:57.244Z,51.10
2023-08-02T18:04:24.115Z,51.10
2023-08-02T18:06:51.358Z,50.60
2023-08-02T18:09:19.628Z,50.80
2023-08-02T18:11:46.421Z,51.40
2023-08-02T18:14:14.493Z,51.50
2023-08-02T18:16:41.341Z,52.10
2023-08-02T18:19:08.168Z,53.00
2023-08-02T18:21:35.053Z,53.60
2023-08-02T18:24:01.821Z,54.50
2023-08-02T18:26:28.626Z,55.30
2023-08-02T18:28:55.402Z,55.80
2023-08-02T18:31:23.532Z,55.40
2023-08-02T18:33:50.343Z,54.60
2023-08-02T18:36:17.379Z,53.50
2023-08-02T18:38:44.271Z,53.00
2023-08-02T18:41:19.161Z,52.50
2023-08-02T18:43:46.718Z,52.50
2023-08-02T18:46:13.708Z,52.40
2023-08-02T18:48:41.968Z,52.10
2023-08-02T18:51:08.881Z,52.70
2023-08-02T18:53:35.737Z,53.10
2023-08-02T18:56:02.580Z,52.30
2023-08-02T18:58:29.378Z,52.20
2023-08-02T19:00:56.149Z,51.80
2023-08-02T19:03:24.148Z,51.70
2023-08-02T19:05:58.215Z,51.90
2023-08-02T19:08:25.460Z,52.50
2023-08-02T19:10:52.666Z,51.80
2023-08-02T19:13:19.469Z,51.60
2023-08-02T19:15:47.188Z,51.80
2023-08-02T19:18:15.843Z,52.10
2023-08-02T19:20:42.982Z,52.10
2023-08-02T19:23:15.522Z,52.00
2023-08-02T19:25:42.441Z,51.50
2023-08-02T19:28:11.928Z,53.00
2023-08-02T19:30:38.889Z,51.70
2023-08-02T19:33:07.786Z,52.10
2023-08-02T19:35:34.538Z,51.80
2023-08-02T19:38:03.593Z,51.60
2023-08-02T19:40:31.992Z,52.40
2023-08-02T19:42:58.769Z,51.90
2023-08-02T19:45:25.569Z,51.80
2023-08-02T19:47:52.460Z,51.60
2023-08-02T19:50:19.416Z,52.10
2023-08-02T19:52:46.208Z,51.70
2023-08-02T19:55:13.147Z,52.40
2023-08-02T19:57:45.423Z,52.20
2023-08-02T20:00:15.625Z,52.70
2023-08-02T20:02:43.421Z,53.30
2023-08-02T20:05:15.765Z,52.80
2023-08-02T20:07:42.844Z,53.50
2023-08-02T20:10:28.743Z,53.20
2023-08-02T20:12:57.037Z,53.10
2023-08-02T20:15:23.771Z,53.50
2023-08-02T20:17:55.417Z,52.70
2023-08-02T20:20:22.352Z,53.30
2023-08-02T20:22:49.101Z,53.90
2023-08-02T20:25:15.973Z,54.70
2023-08-02T20:27:42.790Z,54.00
2023-08-02T20:30:16.191Z,53.90
2023-08-02T20:32:42.953Z,55.10
2023-08-02T20:35:11.584Z,54.00
2023-08-02T20:37:38.672Z,55.40
2023-08-02T20:40:07.254Z,54.80
2023-08-02T20:42:34.018Z,54.60
2023-08-02T20:45:01.382Z,54.30
2023-08-02T20:47:29.725Z,53.90
2023-08-02T20:49:56.726Z,55.00
2023-08-02T20:52:23.677Z,54.60
2023-08-02T20:54:50.599Z,53.90
2023-08-02T20:57:17.347Z,54.30
2023-08-02T20:59:44.186Z,54.40
2023-08-02T21:02:18.248Z,55.00
2023-08-02T21:04:46.751Z,55.00
2023-08-02T21:07:13.470Z,54.80
2023-08-02T21:09:40.411Z,54.60
2023-08-02T21:12:07.847Z,54.30
2023-08-02T21:14:34.600Z,54.90
2023-08-02T21:17:01.464Z,54.50
2023-08-02T21:19:30.608Z,54.20
2023-08-02T21:21:58.704Z,54.80
2023-08-02T21:24:25.673Z,54.60
2023-08-02T21:26:54.898Z,54.90
2023-08-02T21:29:22.569Z,54.30
2023-08-02T21:31:52.761Z,54.50
2023-08-02T21:34:20.115Z,54.30
2023-08-02T21:36:47.060Z,54.30
2023-08-02T21:39:16.107Z,54.80
2023-08-02T21:41:43.093Z,54.80
2023-08-02T21:44:10.889Z,54.30
2023-08-02T21:46:38.281Z,54.00
2023-08-02T21:49:05.433Z,54.10
2023-08-02T21:51:33.058Z,54.20
2023-08-02T21:53:59.856Z,54.50
2023-08-02T21:56:27.944Z,54.80
2023-08-02T21:58:57.757Z,55.00
2023-08-02T22:01:25.016Z,54.80
2023-08-02T22:03:52.108Z,55.10
2023-08-02T22:06:23.022Z,55.10
2023-08-02T22:08:50.367Z,55.40
2023-08-02T22:11:17.675Z,55.40
2023-08-02T22:13:47.028Z,55.40
2023-08-02T22:16:15.117Z,55.60
2023-08-02T22:18:42.462Z,55.00
2023-08-02T22:21:09.444Z,55.30
2023-08-02T22:23:36.735Z,55.60
2023-08-02T22:26:03.970Z,55.30
2023-08-02T22:28:31.008Z,55.20
2023-08-02T22:30:59.125Z,54.90
2023-08-02T22:33:26.013Z,55.40
2023-08-02T22:35:52.754Z,55.50
2023-08-02T22:38:22.963Z,55.50
2023-08-02T22:40:54.478Z,54.70
2023-08-02T22:43:21.268Z,54.90
2023-08-02T22:45:48.060Z,54.90
2023-08-02T22:48:54.634Z,54.80
2023-08-02T22:51:03.031Z,55.00
2023-08-02T22:53:29.838Z,55.00
2023-08-02T22:55:57.205Z,54.60
2023-08-02T22:58:24.510Z,54.80
2023-08-02T23:00:51.285Z,54.10
2023-08-02T23:03:36.263Z,54.50
2023-08-02T23:06:04.923Z,55.30
2023-08-02T23:08:34.777Z,55.20
2023-08-02T23:11:01.527Z,55.50
2023-08-02T23:13:28.260Z,55.00
2023-08-02T23:15:55.058Z,55.30
2023-08-02T23:18:23.375Z,54.60
2023-08-02T23:20:51.972Z,54.00
2023-08-02T23:23:24.367Z,54.20
2023-08-02T23:25:58.297Z,54.00
2023-08-02T23:28:26.850Z,53.90
2023-08-02T23:30:54.044Z,53.70
2023-08-02T23:33:20.775Z,53.70
2023-08-02T23:35:47.502Z,53.70
2023-08-02T23:38:15.721Z,53.60
2023-08-02T23:40:42.533Z,53.80
2023-08-02T23:43:09.277Z,53.30
2023-08-02T23:45:36.089Z,53.30
2023-08-02T23:48:02.849Z,53.50
2023-08-02T23:50:29.651Z,53.50
2023-08-02T23:52:56.454Z,53.60
2023-08-02T23:55:24.568Z,53.20
2023-08-02T23:57:51.658Z,53.10
